Saint Paul, Texas
Current Conditions -  °F | °C
As of 9:35 PM on Saturday 24 Jan 2015 (Local Time) from KF46 Reporting Station
Clear Clear  
Wind Chill: 51°   Ceiling: Unl
Heat Index: 51°   Visibility: 10mi
Dew Point: 36°   Wind: 8mph
Humidity: 56%   Direction: 230°SW
Pressure: 30"   Gusts: NA
Location:  33.0138°N, 96.5409°W
Report Text: KF46 250335Z AUTO 23007KT 10SM CLR 11/02 A3000 RMK AO2 T01050021
Loading
Personal Weather Stations






























Interactive Weather Map New forecast layout! Learn more

10-Day Weather Forecast

Advertisements
Track Severe Weather on mobile